createdAt,value
2018-09-09T00:00:48.914Z,87.83
2018-09-09T00:03:17.470Z,87.83
2018-09-09T00:05:46.134Z,87.52
2018-09-09T00:08:14.630Z,87.87
2018-09-09T00:10:43.197Z,87.54
2018-09-09T00:13:11.782Z,87.57
2018-09-09T00:15:40.281Z,87.95
2018-09-09T00:18:08.754Z,88.01
2018-09-09T00:20:37.942Z,88.37
2018-09-09T00:23:07.262Z,88.57
2018-09-09T00:25:36.270Z,88.59
2018-09-09T00:28:05.186Z,88.56
2018-09-09T00:30:33.930Z,89.75
2018-09-09T00:33:02.403Z,89.69
2018-09-09T00:35:30.886Z,90.39
2018-09-09T00:37:59.810Z,90.51
2018-09-09T00:40:28.362Z,90.42
2018-09-09T00:42:57.641Z,90.42
2018-09-09T00:45:26.149Z,90.64
2018-09-09T00:47:54.754Z,90.69
2018-09-09T00:50:28.612Z,90.58
2018-09-09T00:53:02.346Z,90.50
2018-09-09T00:55:31.362Z,90.50
2018-09-09T00:57:59.889Z,90.39
2018-09-09T01:00:33.718Z,90.54
2018-09-09T01:03:02.304Z,90.52
2018-09-09T01:05:30.874Z,90.32
2018-09-09T01:07:59.378Z,90.67
2018-09-09T01:10:27.978Z,90.37
2018-09-09T01:12:56.654Z,90.96
2018-09-09T01:15:25.192Z,90.50
2018-09-09T01:17:53.810Z,90.78
2018-09-09T01:20:22.811Z,90.65
2018-09-09T01:22:51.315Z,90.01
2018-09-09T01:25:19.849Z,90.22
2018-09-09T01:27:48.331Z,90.26
2018-09-09T01:30:16.909Z,90.94
2018-09-09T01:32:45.414Z,90.67
2018-09-09T01:35:13.893Z,90.49
2018-09-09T01:37:42.462Z,90.61
2018-09-09T01:40:11.133Z,90.62
2018-09-09T01:42:39.807Z,90.65
2018-09-09T01:45:08.314Z,90.84
2018-09-09T01:47:37.793Z,90.58
2018-09-09T01:50:06.346Z,90.23
2018-09-09T01:52:34.865Z,90.47
2018-09-09T01:55:03.486Z,90.59
2018-09-09T01:57:32.047Z,91.12
2018-09-09T02:00:00.618Z,91.31
2018-09-09T02:02:29.230Z,91.16
2018-09-09T02:04:57.881Z,91.60
2018-09-09T02:07:26.458Z,91.67
2018-09-09T02:09:54.968Z,91.85
2018-09-09T02:12:23.462Z,92.23
2018-09-09T02:14:52.018Z,92.16
2018-09-09T02:17:20.598Z,92.32
2018-09-09T02:19:49.078Z,92.48
2018-09-09T02:22:17.661Z,91.99
2018-09-09T02:24:46.252Z,92.21
2018-09-09T02:27:14.829Z,92.54
2018-09-09T02:29:43.418Z,92.25
2018-09-09T02:32:11.902Z,92.00
2018-09-09T02:34:40.375Z,91.92
2018-09-09T02:37:08.939Z,92.18
2018-09-09T02:39:37.519Z,92.69
2018-09-09T02:42:06.010Z,92.32
2018-09-09T02:44:34.498Z,92.33
2018-09-09T02:47:03.344Z,93.02
2018-09-09T02:49:31.853Z,92.75
2018-09-09T02:52:00.477Z,92.62
2018-09-09T02:54:29.017Z,92.22
2018-09-09T02:56:57.498Z,92.78
2018-09-09T02:59:26.962Z,92.31
2018-09-09T03:01:55.494Z,92.54
2018-09-09T03:04:24.082Z,92.25
2018-09-09T03:06:53.398Z,92.36
2018-09-09T03:09:21.962Z,91.78
2018-09-09T03:11:50.540Z,91.38
2018-09-09T03:14:19.855Z,91.46
2018-09-09T03:16:48.535Z,90.96
2018-09-09T03:19:17.035Z,91.15
2018-09-09T03:21:45.699Z,90.70
2018-09-09T03:24:14.278Z,90.16
2018-09-09T03:26:42.847Z,90.07
2018-09-09T03:29:11.323Z,89.62
2018-09-09T03:31:39.859Z,89.23
2018-09-09T03:34:08.498Z,89.25
2018-09-09T03:36:36.978Z,89.23
2018-09-09T03:39:07.889Z,89.26
2018-09-09T03:41:36.701Z,89.28
2018-09-09T03:44:05.418Z,89.55
2018-09-09T03:46:34.124Z,89.91
2018-09-09T03:49:02.693Z,89.93
2018-09-09T03:51:31.262Z,89.56
2018-09-09T03:53:59.818Z,89.63
2018-09-09T03:56:28.390Z,90.11
2018-09-09T03:58:56.998Z,90.21
2018-09-09T04:01:25.592Z,90.39
2018-09-09T04:03:54.112Z,89.89
2018-09-09T04:06:22.646Z,90.33
2018-09-09T04:08:51.267Z,89.90
2018-09-09T04:11:19.898Z,89.95
2018-09-09T04:13:48.380Z,90.19
2018-09-09T04:16:16.982Z,89.41
2018-09-09T04:18:45.970Z,90.08
2018-09-09T04:21:14.447Z,89.37
2018-09-09T04:23:43.076Z,89.06
2018-09-09T04:26:11.637Z,89.08
2018-09-09T04:28:40.207Z,89.17
2018-09-09T04:31:08.790Z,89.17
2018-09-09T04:33:37.399Z,88.63
2018-09-09T04:36:06.035Z,88.72
2018-09-09T04:38:34.500Z,89.09
2018-09-09T04:41:03.001Z,89.52
2018-09-09T04:43:31.491Z,89.52
2018-09-09T04:46:00.090Z,89.86
2018-09-09T04:48:28.786Z,90.58
2018-09-09T04:50:57.337Z,92.17
2018-09-09T04:53:25.910Z,91.60
2018-09-09T04:55:54.646Z,91.25
2018-09-09T04:58:23.524Z,91.45
2018-09-09T05:00:52.686Z,91.02
2018-09-09T05:03:21.198Z,91.42
2018-09-09T05:05:50.054Z,91.20
2018-09-09T05:08:18.673Z,91.19
2018-09-09T05:10:47.222Z,91.43
2018-09-09T05:13:15.722Z,91.60
2018-09-09T05:15:44.527Z,91.44
2018-09-09T05:18:13.115Z,91.18
2018-09-09T05:20:41.653Z,91.15
2018-09-09T05:23:10.270Z,90.70
2018-09-09T05:25:38.920Z,91.22
2018-09-09T05:28:07.537Z,91.23
2018-09-09T05:30:36.158Z,91.26
2018-09-09T05:33:05.910Z,90.74
2018-09-09T05:35:34.387Z,91.00
2018-09-09T05:38:03.268Z,91.00
2018-09-09T05:40:31.775Z,90.97
2018-09-09T05:43:00.374Z,91.03
2018-09-09T05:45:28.974Z,90.76
2018-09-09T05:47:57.541Z,90.39
2018-09-09T05:50:26.108Z,90.50
2018-09-09T05:52:54.670Z,90.24
2018-09-09T05:55:23.276Z,90.20
2018-09-09T05:57:52.068Z,90.17
2018-09-09T06:00:20.530Z,90.22
2018-09-09T06:02:49.097Z,89.48
2018-09-09T06:05:17.710Z,89.79
2018-09-09T06:07:46.290Z,89.93
2018-09-09T06:10:14.766Z,90.39
2018-09-09T06:12:43.337Z,90.18
2018-09-09T06:15:11.975Z,90.12
2018-09-09T06:17:40.593Z,90.45
2018-09-09T06:20:09.176Z,90.67
2018-09-09T06:22:37.674Z,90.96
2018-09-09T06:25:06.382Z,90.81
2018-09-09T06:27:35.027Z,91.03
2018-09-09T06:30:03.713Z,90.80
2018-09-09T06:32:32.954Z,91.05
2018-09-09T06:35:02.346Z,91.72
2018-09-09T06:37:31.424Z,91.26
2018-09-09T06:39:59.934Z,91.80
2018-09-09T06:42:28.551Z,91.85
2018-09-09T06:44:57.155Z,92.33
2018-09-09T06:47:25.756Z,91.79
2018-09-09T06:49:54.424Z,92.30
2018-09-09T06:52:22.921Z,92.19
2018-09-09T06:54:51.508Z,92.37
2018-09-09T06:57:20.172Z,93.18
2018-09-09T06:59:48.651Z,92.92
2018-09-09T07:02:17.226Z,93.77
2018-09-09T07:04:45.731Z,92.90
2018-09-09T07:07:14.302Z,93.78
2018-09-09T07:09:42.799Z,93.89
2018-09-09T07:12:11.407Z,93.38
2018-09-09T07:14:39.962Z,93.40
2018-09-09T07:17:08.895Z,93.56
2018-09-09T07:19:37.466Z,93.48
2018-09-09T07:22:05.966Z,92.98
2018-09-09T07:24:34.583Z,93.23
2018-09-09T07:27:03.095Z,92.69
2018-09-09T07:29:31.683Z,93.17
2018-09-09T07:32:00.230Z,93.41
2018-09-09T07:34:28.822Z,93.71
2018-09-09T07:36:57.418Z,93.20
2018-09-09T07:39:25.998Z,93.35
2018-09-09T07:41:54.618Z,93.80
2018-09-09T07:44:23.247Z,93.55
2018-09-09T07:46:51.772Z,94.21
2018-09-09T07:49:20.294Z,93.90
2018-09-09T07:51:49.053Z,94.60
2018-09-09T07:54:17.594Z,94.51
2018-09-09T07:56:46.170Z,94.45
2018-09-09T07:59:14.770Z,94.90
2018-09-09T08:01:43.278Z,94.67
2018-09-09T08:04:11.793Z,95.00
2018-09-09T08:06:40.302Z,95.14
2018-09-09T08:09:10.230Z,94.53
2018-09-09T08:11:39.549Z,95.07
2018-09-09T08:14:09.462Z,94.94
2018-09-09T08:16:38.203Z,94.50
2018-09-09T08:19:07.046Z,94.54
2018-09-09T08:21:35.818Z,94.84
2018-09-09T08:24:04.374Z,94.48
2018-09-09T08:26:32.989Z,93.85
2018-09-09T08:29:01.460Z,94.24
2018-09-09T08:31:30.023Z,94.04
2018-09-09T08:33:58.622Z,93.72
2018-09-09T08:36:27.287Z,93.81
2018-09-09T08:38:55.847Z,94.00
2018-09-09T08:41:24.462Z,93.73
2018-09-09T08:43:53.024Z,93.64
2018-09-09T08:46:21.508Z,94.07
2018-09-09T08:48:50.106Z,93.57
2018-09-09T08:51:18.686Z,93.56
2018-09-09T08:53:47.253Z,93.35
2018-09-09T08:56:15.766Z,92.76
2018-09-09T08:58:44.340Z,93.23
2018-09-09T09:01:12.899Z,92.40
2018-09-09T09:03:41.395Z,92.58
2018-09-09T09:06:10.071Z,93.05
2018-09-09T09:08:38.648Z,92.92
2018-09-09T09:11:07.371Z,92.70
2018-09-09T09:13:35.954Z,92.55
2018-09-09T09:16:04.626Z,91.05
2018-09-09T09:18:34.548Z,91.41
2018-09-09T09:21:03.096Z,90.91
2018-09-09T09:23:31.616Z,90.08
2018-09-09T09:26:00.192Z,90.35
2018-09-09T09:28:28.690Z,90.43
2018-09-09T09:30:57.280Z,89.50
2018-09-09T09:33:25.818Z,90.36
2018-09-09T09:35:55.152Z,89.92
2018-09-09T09:38:24.099Z,89.56
2018-09-09T09:40:53.398Z,89.61
2018-09-09T09:43:22.063Z,90.00
2018-09-09T09:45:50.574Z,89.39
2018-09-09T09:48:19.086Z,88.69
2018-09-09T09:50:47.648Z,88.72
2018-09-09T09:53:16.389Z,88.99
2018-09-09T09:55:45.463Z,88.69
2018-09-09T09:58:13.999Z,88.46
2018-09-09T10:00:47.670Z,87.91
2018-09-09T10:03:16.200Z,87.75
2018-09-09T10:05:44.670Z,88.25
2018-09-09T10:08:13.146Z,88.08
2018-09-09T10:10:41.639Z,87.82
2018-09-09T10:13:10.121Z,87.18
2018-09-09T10:15:39.502Z,86.65
2018-09-09T10:18:08.075Z,87.20
2018-09-09T10:20:36.594Z,86.11
2018-09-09T10:23:05.078Z,86.43
2018-09-09T10:25:33.642Z,86.96
2018-09-09T10:28:02.234Z,86.00
2018-09-09T10:30:30.998Z,85.70
2018-09-09T10:32:59.523Z,85.29
2018-09-09T10:35:28.066Z,86.19
2018-09-09T10:37:56.546Z,85.68
2018-09-09T10:40:25.122Z,85.03
2018-09-09T10:42:53.607Z,85.42
2018-09-09T10:45:22.106Z,84.85
2018-09-09T10:47:50.590Z,85.27
2018-09-09T10:50:19.306Z,85.24
2018-09-09T10:52:47.842Z,84.69
2018-09-09T10:55:16.415Z,83.59
2018-09-09T10:57:44.998Z,84.46
2018-09-09T11:00:13.599Z,83.88
2018-09-09T11:02:42.165Z,83.70
2018-09-09T11:05:10.650Z,82.87
2018-09-09T11:07:39.125Z,81.61
2018-09-09T11:10:07.813Z,81.85
2018-09-09T11:12:36.356Z,81.61
2018-09-09T11:15:05.079Z,80.91
2018-09-09T11:17:33.559Z,81.15
2018-09-09T11:20:02.140Z,80.03
2018-09-09T11:22:30.638Z,82.02
2018-09-09T11:24:59.204Z,80.90
2018-09-09T11:27:28.042Z,79.98
2018-09-09T11:29:56.749Z,78.39
2018-09-09T11:32:25.262Z,79.83
2018-09-09T11:34:54.290Z,78.95
2018-09-09T11:37:22.975Z,79.00
2018-09-09T11:39:51.544Z,79.16
2018-09-09T11:42:20.103Z,80.24
2018-09-09T11:44:48.835Z,78.80
2018-09-09T11:47:17.406Z,80.50
2018-09-09T11:49:46.057Z,78.77
2018-09-09T11:52:14.574Z,79.57
2018-09-09T11:54:43.126Z,79.47
2018-09-09T11:57:11.909Z,79.66
2018-09-09T11:59:40.490Z,79.83
2018-09-09T12:02:09.111Z,81.17
2018-09-09T12:04:37.546Z,80.53
2018-09-09T12:07:06.295Z,80.09
2018-09-09T12:09:34.831Z,80.69
2018-09-09T12:12:03.324Z,80.60
2018-09-09T12:14:31.922Z,80.94
2018-09-09T12:17:00.390Z,81.40
2018-09-09T12:19:28.992Z,82.86
2018-09-09T12:21:57.542Z,83.50
2018-09-09T12:24:26.022Z,84.97
2018-09-09T12:26:54.635Z,84.55
2018-09-09T12:29:23.130Z,85.88
2018-09-09T12:31:51.667Z,86.73
2018-09-09T12:34:20.242Z,85.84
2018-09-09T12:36:48.730Z,86.62
2018-09-09T12:39:17.234Z,85.99
2018-09-09T12:41:45.712Z,86.43
2018-09-09T12:44:19.541Z,86.39
2018-09-09T12:46:53.290Z,85.60
2018-09-09T12:49:22.013Z,85.35
2018-09-09T12:51:50.602Z,85.51
2018-09-09T12:54:19.168Z,85.34
2018-09-09T12:56:47.639Z,85.50
2018-09-09T12:59:16.208Z,85.64
2018-09-09T13:01:44.671Z,85.97
2018-09-09T13:04:13.271Z,85.59
2018-09-09T13:06:41.758Z,84.58
2018-09-09T13:09:10.685Z,85.09
2018-09-09T13:11:39.284Z,84.74
2018-09-09T13:14:07.749Z,83.82
2018-09-09T13:16:36.309Z,83.71
2018-09-09T13:19:04.910Z,84.70
2018-09-09T13:21:33.398Z,84.01
2018-09-09T13:24:01.946Z,83.91
2018-09-09T13:26:30.470Z,83.37
2018-09-09T13:28:59.092Z,83.35
2018-09-09T13:31:27.619Z,83.97
2018-09-09T13:33:56.314Z,84.16
2018-09-09T13:36:24.862Z,84.32
2018-09-09T13:38:53.511Z,82.35
2018-09-09T13:41:22.114Z,82.33
2018-09-09T13:43:50.697Z,82.08
2018-09-09T13:46:19.335Z,82.69
2018-09-09T13:48:47.828Z,81.64
2018-09-09T13:51:16.426Z,82.13
2018-09-09T13:53:44.926Z,81.48
2018-09-09T13:56:13.426Z,81.57
2018-09-09T13:58:42.022Z,81.70
2018-09-09T14:01:10.675Z,81.24
2018-09-09T14:03:39.267Z,81.61
2018-09-09T14:06:07.864Z,80.66
2018-09-09T14:08:36.357Z,79.87
2018-09-09T14:11:05.007Z,79.83
2018-09-09T14:13:33.502Z,80.03
2018-09-09T14:16:02.172Z,81.41
2018-09-09T14:18:30.774Z,80.44
2018-09-09T14:20:59.250Z,80.79
2018-09-09T14:23:27.834Z,80.20
2018-09-09T14:25:56.422Z,80.20
2018-09-09T14:28:25.088Z,80.48
2018-09-09T14:30:54.329Z,80.56
2018-09-09T14:33:22.886Z,80.94
2018-09-09T14:35:51.475Z,81.59
2018-09-09T14:38:19.973Z,82.29
2018-09-09T14:40:48.514Z,82.21
2018-09-09T14:43:17.006Z,82.15
2018-09-09T14:45:45.514Z,81.88
2018-09-09T14:48:14.159Z,83.44
2018-09-09T14:50:42.671Z,83.10
2018-09-09T14:53:11.322Z,82.80
2018-09-09T14:55:39.804Z,83.48
2018-09-09T14:58:08.422Z,84.05
2018-09-09T15:00:37.176Z,84.83
2018-09-09T15:03:05.802Z,84.12
2018-09-09T15:05:34.291Z,84.42
2018-09-09T15:08:02.826Z,84.51
2018-09-09T15:10:31.318Z,83.93
2018-09-09T15:12:59.902Z,83.56
2018-09-09T15:15:28.926Z,84.05
2018-09-09T15:17:57.511Z,83.64
2018-09-09T15:20:26.146Z,83.29
2018-09-09T15:22:54.728Z,82.93
2018-09-09T15:25:23.317Z,83.42
2018-09-09T15:27:52.518Z,83.44
2018-09-09T15:30:21.187Z,83.74
2018-09-09T15:32:49.774Z,84.04
2018-09-09T15:35:18.269Z,83.37
2018-09-09T15:37:46.854Z,82.95
2018-09-09T15:40:15.439Z,83.22
2018-09-09T15:42:44.053Z,82.69
2018-09-09T15:45:12.770Z,83.05
2018-09-09T15:47:41.369Z,82.99
2018-09-09T15:50:09.858Z,82.91
2018-09-09T15:52:38.358Z,84.03
2018-09-09T15:55:06.953Z,83.35
2018-09-09T15:57:35.539Z,83.80
2018-09-09T16:00:04.122Z,84.03
2018-09-09T16:02:32.816Z,83.12
2018-09-09T16:05:01.327Z,83.43
2018-09-09T16:07:29.846Z,83.36
2018-09-09T16:09:58.334Z,83.69
2018-09-09T16:12:26.914Z,83.65
2018-09-09T16:14:55.502Z,83.90
2018-09-09T16:17:24.166Z,83.74
2018-09-09T16:19:54.225Z,83.56
2018-09-09T16:22:23.031Z,83.66
2018-09-09T16:24:51.598Z,84.14
2018-09-09T16:27:20.239Z,84.62
2018-09-09T16:29:48.990Z,85.01
2018-09-09T16:32:17.770Z,86.61
2018-09-09T16:34:46.302Z,87.34
2018-09-09T16:37:14.834Z,87.31
2018-09-09T16:39:43.419Z,87.69
2018-09-09T16:42:11.959Z,87.36
2018-09-09T16:44:40.559Z,88.61
2018-09-09T16:47:11.302Z,88.30
2018-09-09T16:49:39.818Z,88.50
2018-09-09T16:52:08.370Z,88.23
2018-09-09T16:54:36.905Z,88.68
2018-09-09T16:57:05.715Z,89.26
2018-09-09T16:59:34.784Z,89.39
2018-09-09T17:02:03.367Z,89.39
2018-09-09T17:04:31.894Z,89.11
2018-09-09T17:07:00.532Z,89.31
2018-09-09T17:09:29.034Z,89.16
2018-09-09T17:11:57.610Z,88.90
2018-09-09T17:14:26.180Z,89.49
2018-09-09T17:16:54.864Z,89.47
2018-09-09T17:19:23.413Z,89.80
2018-09-09T17:21:52.829Z,89.87
2018-09-09T17:24:21.574Z,89.81
2018-09-09T17:26:50.066Z,90.23
2018-09-09T17:29:18.634Z,89.81
2018-09-09T17:31:47.385Z,89.13
2018-09-09T17:34:15.875Z,89.33
2018-09-09T17:36:44.362Z,89.23
2018-09-09T17:39:13.055Z,89.80
2018-09-09T17:41:41.557Z,90.23
2018-09-09T17:44:10.197Z,90.21
2018-09-09T17:46:38.822Z,89.89
2018-09-09T17:49:07.364Z,90.23
2018-09-09T17:51:35.948Z,89.82
2018-09-09T17:54:04.546Z,90.28
2018-09-09T17:56:33.154Z,90.22
2018-09-09T17:59:01.850Z,90.50
2018-09-09T18:01:30.380Z,90.47
2018-09-09T18:03:58.906Z,90.56
2018-09-09T18:06:27.454Z,90.55
2018-09-09T18:08:56.034Z,90.79
2018-09-09T18:11:24.680Z,90.86
2018-09-09T18:13:53.226Z,90.70
2018-09-09T18:16:22.022Z,90.81
2018-09-09T18:18:50.528Z,91.59
2018-09-09T18:21:19.077Z,91.66
2018-09-09T18:23:47.708Z,91.91
2018-09-09T18:26:16.310Z,91.99
2018-09-09T18:28:44.910Z,92.32
2018-09-09T18:31:13.565Z,92.36
2018-09-09T18:33:42.366Z,92.42
2018-09-09T18:36:10.950Z,92.05
2018-09-09T18:38:39.648Z,92.54
2018-09-09T18:41:09.150Z,92.11
2018-09-09T18:43:38.387Z,91.95
2018-09-09T18:46:07.482Z,91.59
2018-09-09T18:48:36.323Z,91.59
2018-09-09T18:51:04.904Z,91.85
2018-09-09T18:53:33.487Z,91.66
2018-09-09T18:56:03.302Z,91.50
2018-09-09T18:58:31.795Z,91.41
2018-09-09T19:01:01.050Z,91.97
2018-09-09T19:03:29.531Z,91.23
2018-09-09T19:05:58.002Z,91.99
2018-09-09T19:08:26.546Z,92.03
2018-09-09T19:10:55.868Z,92.38
2018-09-09T19:13:24.419Z,92.29
2018-09-09T19:15:52.914Z,92.21
2018-09-09T19:18:21.513Z,92.41
2018-09-09T19:20:50.458Z,92.00
2018-09-09T19:23:18.958Z,92.28
2018-09-09T19:25:48.546Z,91.88
2018-09-09T19:28:17.131Z,92.36
2018-09-09T19:30:45.750Z,92.96
2018-09-09T19:33:14.991Z,93.23
2018-09-09T19:35:44.190Z,92.79
2018-09-09T19:38:12.706Z,93.03
2018-09-09T19:40:41.210Z,93.41
2018-09-09T19:43:09.959Z,93.05
2018-09-09T19:45:38.541Z,92.74
2018-09-09T19:48:07.074Z,93.75
2018-09-09T19:50:35.626Z,93.26
2018-09-09T19:53:04.431Z,93.42
2018-09-09T19:55:33.027Z,93.20
2018-09-09T19:58:01.563Z,93.37
2018-09-09T20:00:30.060Z,93.41
2018-09-09T20:02:59.342Z,93.84
2018-09-09T20:05:28.546Z,94.03
2018-09-09T20:07:57.054Z,94.26
2018-09-09T20:10:25.639Z,93.80
2018-09-09T20:12:54.166Z,93.23
2018-09-09T20:15:23.022Z,93.26
2018-09-09T20:17:51.615Z,93.11
2018-09-09T20:20:21.094Z,93.29
2018-09-09T20:22:49.647Z,93.45
2018-09-09T20:25:18.532Z,93.70
2018-09-09T20:27:47.050Z,93.66
2018-09-09T20:30:15.614Z,94.00
2018-09-09T20:32:44.223Z,94.83
2018-09-09T20:35:12.900Z,94.23
2018-09-09T20:37:41.546Z,94.70
2018-09-09T20:40:10.050Z,94.57
2018-09-09T20:42:38.610Z,95.06
2018-09-09T20:45:07.512Z,94.94
2018-09-09T20:47:36.090Z,94.14
2018-09-09T20:50:04.674Z,94.80
2018-09-09T20:52:33.170Z,94.77
2018-09-09T20:55:01.779Z,94.99
2018-09-09T20:57:30.258Z,94.99
2018-09-09T20:59:58.938Z,94.96
2018-09-09T21:02:27.475Z,95.40
2018-09-09T21:04:55.990Z,95.40
2018-09-09T21:07:24.542Z,95.31
2018-09-09T21:09:53.019Z,94.98
2018-09-09T21:12:22.525Z,95.49
2018-09-09T21:14:51.018Z,95.25
2018-09-09T21:17:19.689Z,95.60
2018-09-09T21:19:48.206Z,95.97
2018-09-09T21:22:16.687Z,96.10
2018-09-09T21:24:45.265Z,96.04
2018-09-09T21:27:13.918Z,95.83
2018-09-09T21:29:42.487Z,95.89
2018-09-09T21:32:10.994Z,95.67
2018-09-09T21:34:39.835Z,95.70
2018-09-09T21:37:08.352Z,95.42
2018-09-09T21:39:36.829Z,95.69
2018-09-09T21:42:05.345Z,95.89
2018-09-09T21:44:33.826Z,95.52
2018-09-09T21:47:02.411Z,95.67
2018-09-09T21:49:31.063Z,95.83
2018-09-09T21:51:59.534Z,95.18
2018-09-09T21:54:28.074Z,95.84
2018-09-09T21:56:56.628Z,95.37
2018-09-09T21:59:25.206Z,95.64
2018-09-09T22:01:58.938Z,95.60
2018-09-09T22:04:28.384Z,95.23
2018-09-09T22:06:56.914Z,95.54
2018-09-09T22:09:25.378Z,95.40
2018-09-09T22:11:53.939Z,94.77
2018-09-09T22:14:22.563Z,95.01
2018-09-09T22:16:51.118Z,94.78
2018-09-09T22:19:19.791Z,94.10
2018-09-09T22:21:49.644Z,94.15
2018-09-09T22:24:19.750Z,93.46
2018-09-09T22:26:48.218Z,93.11
2018-09-09T22:29:16.798Z,92.82
2018-09-09T22:31:45.281Z,93.42
2018-09-09T22:34:16.147Z,91.96
2018-09-09T22:36:44.807Z,91.23
2018-09-09T22:39:13.517Z,90.12
2018-09-09T22:41:42.156Z,89.23
2018-09-09T22:44:12.718Z,88.07
2018-09-09T22:46:41.817Z,86.79
2018-09-09T22:49:10.382Z,86.77
2018-09-09T22:51:39.290Z,86.97
2018-09-09T22:54:07.934Z,86.87
2018-09-09T22:56:36.402Z,86.36
2018-09-09T22:59:04.922Z,86.22
2018-09-09T23:01:33.399Z,86.38
2018-09-09T23:04:01.907Z,86.27
2018-09-09T23:06:30.547Z,86.17
2018-09-09T23:08:59.154Z,86.90
2018-09-09T23:11:27.718Z,86.66
2018-09-09T23:13:56.242Z,87.58
2018-09-09T23:16:24.815Z,87.40
2018-09-09T23:18:53.370Z,87.88
2018-09-09T23:21:21.964Z,88.41
2018-09-09T23:23:50.730Z,88.86
2018-09-09T23:26:19.250Z,89.39
2018-09-09T23:28:47.827Z,90.41
2018-09-09T23:31:16.309Z,91.20
2018-09-09T23:33:44.994Z,90.90
2018-09-09T23:36:13.735Z,91.17
2018-09-09T23:38:42.267Z,91.57
2018-09-09T23:41:10.742Z,91.45
2018-09-09T23:43:39.450Z,91.76
2018-09-09T23:46:07.978Z,91.78
2018-09-09T23:48:36.454Z,92.11
2018-09-09T23:51:05.086Z,92.42
2018-09-09T23:53:33.622Z,92.64
2018-09-09T23:56:02.202Z,92.48
2018-09-09T23:58:30.727Z,92.52
